Time;durP1;ratioP1;P1;durP2;ratioP2;P2;SDS_P1;SDS_P2;PMS_P1;PMS_P2;Temp;Humidity;BMP_temperature;BMP_pressure;BME280_temperature;BME280_humidity;BME280_pressure;Samples;Min_cycle;Max_cycle;Signal;HPM_P1;HPM_P2
2021/12/30 00:00:47;;;;;;;25.33;4.43;;;8.80;99.90;;;;;;4976557;28;20050;-79
2021/12/30 00:03:13;;;;;;;31.67;3.85;;;8.80;99.90;;;;;;4975723;28;20121;-79
2021/12/30 00:05:41;;;;;;;24.50;3.78;;;8.80;99.90;;;;;;4976170;28;20122;-79
2021/12/30 00:08:07;;;;;;;30.13;4.57;;;8.70;99.90;;;;;;4976287;28;20050;-79
2021/12/30 00:10:33;;;;;;;28.02;4.75;;;8.60;99.90;;;;;;4975823;28;20042;-79
2021/12/30 00:12:59;;;;;;;21.25;3.30;;;8.70;99.90;;;;;;4992948;28;20049;-79
2021/12/30 00:15:25;;;;;;;36.97;6.40;;;8.60;99.90;;;;;;4975991;28;20511;-79
2021/12/30 00:17:51;;;;;;;21.52;4.45;;;8.60;99.90;;;;;;4975787;28;20052;-79
2021/12/30 00:20:18;;;;;;;24.13;4.28;;;8.60;99.90;;;;;;4993144;28;20098;-79
2021/12/30 00:22:44;;;;;;;23.95;4.72;;;8.60;99.90;;;;;;4976053;28;20053;-79
2021/12/30 00:25:12;;;;;;;38.75;5.53;;;8.60;99.90;;;;;;4975401;28;20038;-79
2021/12/30 00:27:38;;;;;;;23.88;3.97;;;8.50;99.90;;;;;;4975586;28;20046;-79
2021/12/30 00:30:06;;;;;;;26.13;4.72;;;8.50;99.90;;;;;;4992890;28;20121;-79
2021/12/30 00:32:32;;;;;;;31.42;5.80;;;8.50;99.90;;;;;;4975353;28;20466;-79
2021/12/30 00:34:59;;;;;;;23.17;4.47;;;8.50;99.90;;;;;;4975195;28;20053;-79
2021/12/30 00:37:25;;;;;;;26.17;4.10;;;8.50;99.90;;;;;;4975478;28;20129;-79
2021/12/30 00:39:50;;;;;;;33.20;4.50;;;8.40;99.90;;;;;;4975535;28;20538;-80
2021/12/30 00:42:16;;;;;;;18.60;4.22;;;8.50;99.90;;;;;;4959761;28;20078;-80
2021/12/30 00:44:41;;;;;;;27.52;4.63;;;8.50;99.90;;;;;;4976697;28;20454;-83
2021/12/30 00:47:07;;;;;;;30.08;5.00;;;8.40;99.90;;;;;;4978783;28;20046;-83
2021/12/30 00:49:32;;;;;;;25.20;4.72;;;8.40;99.90;;;;;;4981362;28;20503;-82
2021/12/30 00:51:58;;;;;;;20.67;5.80;;;8.40;99.90;;;;;;4980353;28;20049;-82
2021/12/30 00:54:24;;;;;;;24.48;5.05;;;8.40;99.90;;;;;;4982597;28;20038;-82
2021/12/30 00:56:50;;;;;;;30.27;4.88;;;8.30;99.90;;;;;;4981791;28;20061;-83
2021/12/30 00:59:16;;;;;;;25.65;3.75;;;8.40;99.90;;;;;;4982517;28;20099;-83
2021/12/30 01:01:41;;;;;;;23.38;4.13;;;8.30;99.90;;;;;;4964753;28;20053;-83
2021/12/30 01:04:07;;;;;;;24.52;4.22;;;8.30;99.90;;;;;;4979095;28;20046;-80
2021/12/30 01:06:33;;;;;;;21.48;3.70;;;8.30;99.90;;;;;;4978667;28;20124;-80
2021/12/30 01:08:59;;;;;;;25.48;4.05;;;8.30;99.90;;;;;;4979161;28;20065;-79
2021/12/30 01:11:26;;;;;;;33.17;6.07;;;8.30;99.90;;;;;;4979287;28;20075;-79
2021/12/30 01:14:04;;;;;;;32.08;4.88;;;8.30;99.90;;;;;;4979397;28;20046;-80
2021/12/30 01:16:31;;;;;;;29.30;5.20;;;8.20;99.90;;;;;;4978935;28;20060;-79
2021/12/30 01:21:32;;;;;;;26.27;4.30;;;8.20;99.90;;;;;;4979639;28;20082;-80
2021/12/30 01:23:59;;;;;;;35.47;7.43;;;8.20;99.90;;;;;;4978637;28;20078;-80
2021/12/30 01:26:25;;;;;;;24.15;5.07;;;8.20;99.90;;;;;;4978596;28;20038;-80
2021/12/30 01:28:51;;;;;;;25.40;4.53;;;8.20;99.90;;;;;;4978742;28;20089;-79
2021/12/30 01:31:18;;;;;;;27.50;4.63;;;8.20;99.90;;;;;;4978808;28;20117;-79
2021/12/30 01:33:44;;;;;;;25.60;5.35;;;8.20;99.90;;;;;;4979210;28;20096;-79
2021/12/30 01:36:11;;;;;;;34.60;5.45;;;8.30;99.90;;;;;;4977899;28;20054;-79
2021/12/30 01:38:37;;;;;;;39.42;5.85;;;8.20;99.90;;;;;;4979138;28;20107;-79
2021/12/30 01:41:03;;;;;;;38.40;5.03;;;8.20;99.90;;;;;;4978890;28;20050;-79
2021/12/30 01:43:29;;;;;;;21.52;4.55;;;8.20;99.90;;;;;;4996314;28;20046;-79
2021/12/30 01:45:55;;;;;;;37.63;5.00;;;8.10;99.90;;;;;;4978748;28;20038;-80
2021/12/30 01:48:21;;;;;;;28.83;5.35;;;8.20;99.90;;;;;;4995066;28;20045;-79
2021/12/30 01:50:48;;;;;;;34.50;6.05;;;8.20;99.90;;;;;;4978989;28;20133;-79
2021/12/30 01:53:13;;;;;;;25.50;4.78;;;8.30;99.90;;;;;;4962278;28;20046;-79
2021/12/30 01:55:40;;;;;;;40.75;6.80;;;8.30;99.90;;;;;;4977844;28;20462;-80
2021/12/30 01:58:07;;;;;;;27.50;6.00;;;8.40;99.90;;;;;;4978225;28;20057;-79
2021/12/30 02:00:35;;;;;;;37.28;7.88;;;8.50;99.90;;;;;;4977715;28;20507;-79
2021/12/30 02:03:00;;;;;;;43.75;8.05;;;8.50;99.90;;;;;;4977872;28;20272;-80
2021/12/30 02:05:28;;;;;;;35.10;6.75;;;8.60;99.90;;;;;;4976997;28;20042;-79
2021/12/30 02:07:54;;;;;;;30.63;7.93;;;8.60;99.90;;;;;;4977839;28;20042;-79
2021/12/30 02:10:20;;;;;;;32.42;7.53;;;8.70;99.90;;;;;;4977766;28;20558;-79
2021/12/30 02:12:46;;;;;;;27.92;5.82;;;8.70;99.90;;;;;;4977614;28;20121;-79
2021/12/30 02:15:14;;;;;;;36.33;7.63;;;8.70;99.90;;;;;;4977240;28;20042;-79
2021/12/30 02:17:40;;;;;;;25.70;5.85;;;8.80;99.90;;;;;;4977102;28;20042;-78
2021/12/30 02:20:12;;;;;;;32.78;8.23;;;8.80;99.90;;;;;;4977228;28;20042;-79
2021/12/30 02:22:38;;;;;;;38.22;7.75;;;8.80;99.90;;;;;;4977717;28;20112;-78
2021/12/30 02:25:04;;;;;;;39.58;8.52;;;8.90;99.90;;;;;;4978232;28;20113;-79
2021/12/30 02:27:31;;;;;;;33.63;7.63;;;8.90;99.90;;;;;;4977753;28;20050;-79
2021/12/30 02:29:56;;;;;;;35.13;8.57;;;9.00;99.90;;;;;;4977975;28;20042;-79
2021/12/30 02:32:25;;;;;;;47.08;10.98;;;9.10;99.90;;;;;;4977485;28;20094;-79
2021/12/30 02:34:50;;;;;;;35.13;8.75;;;9.10;99.90;;;;;;4977818;28;20058;-79
2021/12/30 02:37:18;;;;;;;36.42;9.85;;;9.10;99.90;;;;;;4977102;28;20042;-79
2021/12/30 02:39:49;;;;;;;37.35;8.77;;;9.10;99.90;;;;;;4977819;28;20057;-80
2021/12/30 02:42:14;;;;;;;33.78;8.80;;;9.10;99.90;;;;;;4977868;28;20069;-80
2021/12/30 02:44:40;;;;;;;37.88;9.48;;;9.20;99.90;;;;;;4977786;28;20034;-79
2021/12/30 02:47:06;;;;;;;41.33;9.70;;;9.20;99.90;;;;;;4977905;28;20510;-80
2021/12/30 02:49:31;;;;;;;31.98;9.35;;;9.20;99.90;;;;;;4977655;28;20049;-79
2021/12/30 02:51:57;;;;;;;32.88;8.88;;;9.30;99.90;;;;;;4961682;28;20479;-79
2021/12/30 02:54:23;;;;;;;36.67;8.88;;;9.30;99.90;;;;;;4977965;28;20108;-80
2021/12/30 02:56:48;;;;;;;50.80;11.25;;;9.30;99.90;;;;;;4976418;28;20073;-79
2021/12/30 02:59:15;;;;;;;36.20;9.23;;;9.40;99.90;;;;;;4977536;28;20045;-80
2021/12/30 03:01:41;;;;;;;37.90;8.80;;;9.40;99.90;;;;;;4976724;28;20070;-79
2021/12/30 03:04:07;;;;;;;47.80;10.45;;;9.40;99.90;;;;;;4977230;28;20142;-80
2021/12/30 03:06:33;;;;;;;47.22;9.48;;;9.40;99.90;;;;;;4976591;28;20053;-79
2021/12/30 03:08:59;;;;;;;37.60;9.57;;;9.40;99.90;;;;;;4976554;28;20065;-79
2021/12/30 03:11:26;;;;;;;42.75;8.98;;;9.50;99.90;;;;;;4976360;28;20074;-79
2021/12/30 03:13:53;;;;;;;40.97;10.32;;;9.50;99.90;;;;;;4976398;28;20050;-79
2021/12/30 03:16:23;;;;;;;35.60;9.73;;;9.50;99.90;;;;;;4976222;28;20042;-79
2021/12/30 03:18:50;;;;;;;42.53;9.70;;;9.60;99.90;;;;;;4978510;28;20039;-84
2021/12/30 03:21:18;;;;;;;36.38;8.63;;;9.60;99.90;;;;;;4980778;28;20046;-83
2021/12/30 03:23:44;;;;;;;43.85;9.13;;;9.60;99.90;;;;;;4963422;28;20473;-83
2021/12/30 03:26:10;;;;;;;41.75;9.15;;;9.60;99.90;;;;;;4978774;28;20388;-83
2021/12/30 03:28:39;;;;;;;27.73;8.57;;;9.60;99.90;;;;;;4979654;28;20034;-83
2021/12/30 03:31:04;;;;;;;34.55;8.65;;;9.70;99.90;;;;;;4979706;28;20046;-83
2021/12/30 03:33:31;;;;;;;39.05;9.10;;;9.70;99.90;;;;;;4980091;28;20483;-84
2021/12/30 03:35:59;;;;;;;40.95;9.80;;;9.70;99.90;;;;;;4979176;28;20045;-83
2021/12/30 03:38:26;;;;;;;35.63;8.88;;;9.70;99.90;;;;;;4979628;28;20505;-83
2021/12/30 03:40:52;;;;;;;40.00;9.73;;;9.70;99.90;;;;;;4979790;28;20515;-83
2021/12/30 03:43:17;;;;;;;32.08;7.78;;;9.70;99.90;;;;;;4979148;28;20061;-83
2021/12/30 03:45:44;;;;;;;32.70;9.70;;;9.70;99.90;;;;;;4978512;28;20049;-84
2021/12/30 03:48:10;;;;;;;34.38;8.63;;;9.70;99.90;;;;;;4962723;28;20117;-84
2021/12/30 03:50:43;;;;;;;34.50;9.30;;;9.70;99.90;;;;;;4979235;28;20070;-83
2021/12/30 03:53:09;;;;;;;40.47;9.60;;;9.70;99.90;;;;;;4962957;28;20099;-79
2021/12/30 03:55:34;;;;;;;40.17;10.23;;;9.70;99.90;;;;;;4979233;28;20049;-80
2021/12/30 03:58:01;;;;;;;45.72;10.10;;;9.70;99.90;;;;;;4977349;28;20069;-80
2021/12/30 04:00:27;;;;;;;34.30;7.40;;;9.80;99.90;;;;;;4975944;28;20045;-80
2021/12/30 04:02:54;;;;;;;43.83;9.43;;;9.80;99.90;;;;;;4976162;28;20078;-80
2021/12/30 04:05:21;;;;;;;47.53;8.63;;;9.80;99.90;;;;;;4976055;28;20042;-80
2021/12/30 04:07:47;;;;;;;31.20;8.60;;;9.90;99.90;;;;;;4975924;28;20038;-80
2021/12/30 04:10:14;;;;;;;32.88;9.23;;;9.90;99.90;;;;;;4975983;28;20096;-80
2021/12/30 04:12:41;;;;;;;39.30;9.85;;;9.90;99.90;;;;;;4976021;28;20053;-80
2021/12/30 04:15:08;;;;;;;46.92;11.05;;;10.00;99.90;;;;;;4959801;28;20038;-80
2021/12/30 04:17:33;;;;;;;53.50;9.85;;;10.00;99.90;;;;;;4975724;28;20104;-80
2021/12/30 04:19:59;;;;;;;36.40;7.65;;;10.00;99.90;;;;;;4976008;28;20114;-80
2021/12/30 04:22:24;;;;;;;54.58;9.40;;;10.10;99.90;;;;;;4975627;28;20559;-80
2021/12/30 04:24:50;;;;;;;36.70;7.63;;;10.20;99.90;;;;;;4980423;28;20085;-80
2021/12/30 04:27:16;;;;;;;42.63;8.48;;;10.20;99.90;;;;;;4981660;28;20082;-80
2021/12/30 04:29:42;;;;;;;35.05;8.10;;;10.20;99.90;;;;;;4987323;28;20057;-80
2021/12/30 04:32:07;;;;;;;40.33;8.57;;;10.20;99.90;;;;;;4986876;28;20104;-79
2021/12/30 04:34:33;;;;;;;37.42;8.90;;;10.30;99.90;;;;;;4985056;28;20041;-79
2021/12/30 04:36:58;;;;;;;36.25;8.65;;;10.30;99.90;;;;;;4984318;28;20530;-80
2021/12/30 04:39:29;;;;;;;29.00;7.85;;;10.30;99.90;;;;;;4968741;28;20039;-79
2021/12/30 04:41:58;;;;;;;35.10;9.23;;;10.40;99.90;;;;;;4984805;28;20042;-79
2021/12/30 04:44:26;;;;;;;32.83;8.93;;;10.40;99.90;;;;;;4984769;28;20376;-79
2021/12/30 04:46:52;;;;;;;30.35;7.88;;;10.40;99.90;;;;;;4984497;28;20053;-79
2021/12/30 04:49:17;;;;;;;22.60;7.88;;;10.40;99.90;;;;;;4983904;28;20046;-79
2021/12/30 04:51:43;;;;;;;26.60;8.70;;;10.50;99.90;;;;;;4968883;28;20046;-81
2021/12/30 04:54:08;;;;;;;32.85;8.30;;;10.50;99.90;;;;;;4985098;28;20076;-79
2021/12/30 04:56:34;;;;;;;32.25;9.32;;;10.60;99.90;;;;;;4984543;28;20050;-83
2021/12/30 04:58:59;;;;;;;24.02;7.90;;;10.60;99.90;;;;;;4987300;28;20049;-84
2021/12/30 05:01:25;;;;;;;26.27;9.18;;;10.60;99.90;;;;;;4987148;28;20049;-83
2021/12/30 05:03:50;;;;;;;29.08;8.00;;;10.60;99.90;;;;;;4970593;28;20042;-84
2021/12/30 05:06:16;;;;;;;28.73;8.10;;;10.60;99.90;;;;;;4970798;28;20034;-83
2021/12/30 05:08:42;;;;;;;19.65;7.70;;;10.70;99.90;;;;;;4986996;28;20045;-84
2021/12/30 05:11:07;;;;;;;30.50;8.25;;;10.70;99.90;;;;;;4983055;28;20042;-83
2021/12/30 05:13:33;;;;;;;30.52;9.45;;;10.70;99.90;;;;;;4969708;28;20515;-83
2021/12/30 05:15:59;;;;;;;27.75;8.80;;;10.70;99.90;;;;;;4985328;28;20487;-83
2021/12/30 05:18:30;;;;;;;25.38;9.40;;;10.80;99.90;;;;;;4986479;28;20069;-79
2021/12/30 05:20:58;;;;;;;29.23;9.48;;;10.80;99.90;;;;;;4987996;28;20057;-80
2021/12/30 05:23:24;;;;;;;36.00;10.30;;;10.80;99.90;;;;;;4986167;28;20578;-80
2021/12/30 05:25:49;;;;;;;38.22;11.65;;;10.80;99.90;;;;;;4983997;28;20049;-79
2021/12/30 05:28:15;;;;;;;30.52;10.63;;;10.80;99.90;;;;;;4967378;28;20566;-80
2021/12/30 05:30:40;;;;;;;31.27;10.60;;;10.80;99.90;;;;;;4967627;28;20039;-80
2021/12/30 05:33:06;;;;;;;38.03;11.88;;;10.90;99.90;;;;;;4983704;28;20057;-80
2021/12/30 05:35:31;;;;;;;30.10;11.95;;;10.90;99.90;;;;;;4983146;28;20048;-80
2021/12/30 05:37:59;;;;;;;30.77;12.20;;;10.90;99.90;;;;;;4985340;28;20466;-79
2021/12/30 05:40:25;;;;;;;31.50;10.43;;;10.90;99.90;;;;;;4981136;28;20051;-80
2021/12/30 05:42:51;;;;;;;34.95;11.68;;;10.90;99.90;;;;;;4980979;28;20077;-81
2021/12/30 05:45:17;;;;;;;41.42;12.00;;;11.00;99.90;;;;;;4981032;28;20038;-80
2021/12/30 05:47:46;;;;;;;41.85;13.38;;;11.00;99.90;;;;;;4979205;28;20499;-80
2021/12/30 05:50:13;;;;;;;44.90;13.55;;;11.10;99.90;;;;;;4964784;28;20038;-79
2021/12/30 05:52:39;;;;;;;38.17;11.38;;;11.10;99.90;;;;;;4980618;28;20046;-79
2021/12/30 05:55:06;;;;;;;39.53;11.98;;;11.20;99.90;;;;;;4965610;28;20068;-80
2021/12/30 05:57:32;;;;;;;43.63;13.77;;;11.20;99.90;;;;;;4982305;28;20114;-79
2021/12/30 05:59:58;;;;;;;34.55;11.60;;;11.30;99.90;;;;;;4982171;28;20093;-79
2021/12/30 06:02:24;;;;;;;45.63;12.65;;;11.30;99.90;;;;;;4983313;28;20054;-79
2021/12/30 06:04:49;;;;;;;36.42;12.38;;;11.30;99.90;;;;;;4982539;28;20085;-79
2021/12/30 06:07:15;;;;;;;38.03;12.38;;;11.30;99.90;;;;;;4962836;28;20408;-78
2021/12/30 06:09:41;;;;;;;39.22;11.90;;;11.30;99.90;;;;;;4977518;28;20399;-79
2021/12/30 06:12:08;;;;;;;42.08;11.55;;;11.40;99.90;;;;;;4977507;28;20050;-79
2021/12/30 06:14:34;;;;;;;38.67;12.43;;;11.40;99.90;;;;;;4979495;28;20050;-79
2021/12/30 06:17:00;;;;;;;35.88;12.32;;;11.40;99.90;;;;;;4979917;28;20064;-79
2021/12/30 06:19:25;;;;;;;34.97;10.73;;;11.40;99.90;;;;;;4978699;28;20046;-80
2021/12/30 06:21:51;;;;;;;40.03;12.40;;;11.40;99.90;;;;;;4980416;28;20038;-82
2021/12/30 06:24:17;;;;;;;33.97;12.18;;;11.50;99.90;;;;;;4979302;28;20494;-83
2021/12/30 06:26:42;;;;;;;45.35;12.27;;;11.50;99.90;;;;;;4978452;28;20074;-83
2021/12/30 06:29:08;;;;;;;33.38;10.57;;;11.50;99.90;;;;;;4964210;28;20077;-82
2021/12/30 06:31:34;;;;;;;33.78;11.07;;;11.50;99.90;;;;;;4980143;28;20054;-83
2021/12/30 06:33:59;;;;;;;36.63;11.93;;;11.50;99.90;;;;;;4980984;28;20049;-82
2021/12/30 06:36:25;;;;;;;35.22;10.32;;;11.50;99.90;;;;;;4979676;28;20078;-83
2021/12/30 06:38:51;;;;;;;28.85;9.70;;;11.50;99.90;;;;;;4978918;28;20129;-82
2021/12/30 06:41:17;;;;;;;26.42;10.02;;;11.50;99.90;;;;;;4979837;28;20138;-83
2021/12/30 06:43:42;;;;;;;25.17;9.68;;;11.50;99.90;;;;;;4980990;28;20133;-80
2021/12/30 06:46:10;;;;;;;25.05;9.18;;;11.50;99.90;;;;;;4980434;28;20046;-83
2021/12/30 06:48:36;;;;;;;25.08;9.57;;;11.50;99.90;;;;;;4980048;28;20042;-83
2021/12/30 06:51:04;;;;;;;22.77;8.82;;;11.50;99.90;;;;;;4979122;28;20077;-83
2021/12/30 06:53:30;;;;;;;26.77;10.40;;;11.50;99.90;;;;;;4979245;28;20074;-83
2021/12/30 06:55:57;;;;;;;20.35;8.52;;;11.50;99.90;;;;;;4978533;28;20262;-84
2021/12/30 06:58:22;;;;;;;16.67;7.20;;;11.50;99.90;;;;;;4962753;28;20491;-83
2021/12/30 07:00:49;;;;;;;15.18;6.30;;;11.50;99.90;;;;;;4978584;28;20038;-83
2021/12/30 07:03:15;;;;;;;16.02;7.22;;;11.50;99.90;;;;;;4977753;28;20054;-83
2021/12/30 07:05:40;;;;;;;13.10;6.32;;;11.60;99.90;;;;;;4980482;28;20038;-79
2021/12/30 07:08:06;;;;;;;16.98;7.57;;;11.60;99.90;;;;;;4966253;28;20488;-82
2021/12/30 07:10:31;;;;;;;16.92;7.53;;;11.60;99.90;;;;;;4966139;28;20634;-80
2021/12/30 07:12:57;;;;;;;9.85;4.40;;;11.60;99.90;;;;;;4966004;28;20050;-79
2021/12/30 07:15:23;;;;;;;8.57;3.55;;;11.60;99.90;;;;;;4981260;28;20053;-80
2021/12/30 07:17:49;;;;;;;10.20;4.07;;;11.60;99.90;;;;;;4998602;28;20042;-80
2021/12/30 07:20:14;;;;;;;8.32;3.60;;;11.60;99.90;;;;;;4980750;28;20046;-79
2021/12/30 07:22:40;;;;;;;7.80;3.20;;;11.60;99.90;;;;;;4996716;28;20569;-80
2021/12/30 07:25:07;;;;;;;5.70;3.00;;;11.60;99.90;;;;;;4977741;28;20093;-80
2021/12/30 07:27:33;;;;;;;3.65;2.50;;;11.60;99.90;;;;;;4977538;28;20491;-80
2021/12/30 07:29:59;;;;;;;6.10;2.70;;;11.60;99.90;;;;;;4977624;28;20121;-79
2021/12/30 07:32:28;;;;;;;4.55;2.42;;;11.60;99.90;;;;;;4960709;28;20048;-79
2021/12/30 07:34:54;;;;;;;4.65;2.30;;;11.60;99.90;;;;;;4992837;28;20137;-77
2021/12/30 07:37:20;;;;;;;4.18;2.00;;;11.60;99.90;;;;;;4991428;28;20117;-77
2021/12/30 07:39:47;;;;;;;3.70;2.35;;;11.60;99.90;;;;;;4973834;28;20498;-77
2021/12/30 07:42:12;;;;;;;5.35;2.50;;;11.60;99.90;;;;;;4992934;28;20047;-77
2021/12/30 07:44:39;;;;;;;3.55;2.20;;;11.60;99.90;;;;;;4975577;28;20048;-77
2021/12/30 07:47:08;;;;;;;4.70;2.00;;;11.60;99.90;;;;;;4974945;28;20042;-77
2021/12/30 07:49:37;;;;;;;3.38;2.17;;;11.60;99.90;;;;;;4975375;28;20513;-78
2021/12/30 07:52:07;;;;;;;4.90;2.60;;;11.60;99.90;;;;;;4975722;28;20042;-79
2021/12/30 07:54:33;;;;;;;4.47;2.38;;;11.70;99.90;;;;;;4977217;28;20097;-80
2021/12/30 07:57:00;;;;;;;3.80;2.30;;;11.70;99.90;;;;;;4977883;28;20503;-80
2021/12/30 07:59:26;;;;;;;6.28;2.67;;;11.70;99.90;;;;;;4977384;28;20081;-80
2021/12/30 08:01:51;;;;;;;6.18;2.90;;;11.70;99.90;;;;;;4962572;28;20545;-80
2021/12/30 08:04:17;;;;;;;4.70;2.03;;;11.70;99.90;;;;;;4977437;28;20537;-80
2021/12/30 08:06:43;;;;;;;3.72;2.50;;;11.70;99.90;;;;;;4982151;28;20038;-80
2021/12/30 08:09:08;;;;;;;5.32;3.00;;;11.70;99.90;;;;;;4977801;28;20050;-79
2021/12/30 08:11:34;;;;;;;6.30;2.92;;;11.80;99.90;;;;;;4979574;28;20049;-82
2021/12/30 08:14:00;;;;;;;6.70;2.97;;;11.80;99.90;;;;;;4982866;28;20042;-82
2021/12/30 08:16:26;;;;;;;6.75;3.85;;;11.80;99.90;;;;;;4966065;28;20125;-80
2021/12/30 08:18:52;;;;;;;8.52;3.92;;;11.80;99.90;;;;;;4966626;28;20038;-80
2021/12/30 08:21:19;;;;;;;7.25;4.18;;;11.80;99.90;;;;;;4965491;28;20042;-80
2021/12/30 08:23:45;;;;;;;12.20;5.25;;;11.80;99.90;;;;;;4965723;28;20035;-80
2021/12/30 08:26:11;;;;;;;12.95;5.55;;;11.80;99.90;;;;;;4981291;28;20074;-80
2021/12/30 08:28:37;;;;;;;13.02;5.47;;;11.90;99.90;;;;;;4979733;28;20041;-78
2021/12/30 08:31:02;;;;;;;13.23;6.07;;;11.80;99.90;;;;;;4976361;28;20050;-77
2021/12/30 08:33:28;;;;;;;15.75;7.05;;;11.80;99.90;;;;;;4977375;28;20042;-82
2021/12/30 08:35:54;;;;;;;14.98;5.60;;;11.90;99.90;;;;;;4977400;28;20073;-81
2021/12/30 08:38:19;;;;;;;15.68;6.30;;;11.90;99.90;;;;;;4976872;28;20034;-83
2021/12/30 08:40:47;;;;;;;14.15;6.30;;;11.90;99.90;;;;;;4977020;28;20089;-83
2021/12/30 08:43:13;;;;;;;15.68;6.93;;;12.00;99.90;;;;;;4976835;28;20453;-82
2021/12/30 08:45:40;;;;;;;13.73;6.50;;;11.90;99.90;;;;;;4961689;28;20521;-82
2021/12/30 08:48:06;;;;;;;16.65;7.38;;;12.00;99.90;;;;;;4976240;28;20057;-84
2021/12/30 08:50:32;;;;;;;10.77;6.10;;;12.00;99.90;;;;;;4978033;28;20045;-82
2021/12/30 08:52:58;;;;;;;16.52;6.63;;;12.00;99.90;;;;;;4977418;28;20053;-83
2021/12/30 08:55:24;;;;;;;11.77;5.38;;;12.10;99.90;;;;;;4977482;28;20034;-83
2021/12/30 08:57:50;;;;;;;12.45;6.70;;;12.00;99.90;;;;;;4976710;28;20085;-83
2021/12/30 09:00:25;;;;;;;11.95;5.90;;;12.10;99.90;;;;;;4977682;28;20112;-83
2021/12/30 09:02:53;;;;;;;12.25;5.53;;;12.10;99.90;;;;;;4960805;28;20049;-83
2021/12/30 09:05:19;;;;;;;12.13;6.50;;;12.10;99.90;;;;;;4976579;28;20532;-84
2021/12/30 09:07:45;;;;;;;8.35;4.95;;;12.10;99.90;;;;;;4976555;28;20038;-83
2021/12/30 09:10:12;;;;;;;8.63;5.35;;;12.20;99.90;;;;;;4960333;28;20040;-83
2021/12/30 09:12:42;;;;;;;17.60;7.50;;;12.20;99.90;;;;;;4978199;28;20046;-81
2021/12/30 09:15:09;;;;;;;11.75;6.45;;;12.20;99.90;;;;;;4963759;28;20042;-82
2021/12/30 09:17:34;;;;;;;13.95;6.45;;;12.20;99.90;;;;;;4965436;28;20065;-82
2021/12/30 09:20:00;;;;;;;8.48;5.03;;;12.20;99.90;;;;;;4965525;28;20042;-82
2021/12/30 09:22:25;;;;;;;14.00;7.25;;;12.20;99.90;;;;;;4981640;28;20050;-81
2021/12/30 09:24:51;;;;;;;10.32;6.72;;;12.20;99.90;;;;;;4998005;28;20039;-82
2021/12/30 09:27:17;;;;;;;10.52;5.25;;;12.20;99.90;;;;;;4989409;28;20042;-82
2021/12/30 09:29:42;;;;;;;18.25;7.53;;;12.20;99.90;;;;;;4997281;28;20034;-81
2021/12/30 09:32:08;;;;;;;14.88;7.32;;;12.20;99.90;;;;;;4981025;28;20038;-80
2021/12/30 09:34:33;;;;;;;14.50;7.35;;;12.20;99.90;;;;;;4998252;28;20153;-82
2021/12/30 09:36:59;;;;;;;17.30;7.90;;;12.20;99.90;;;;;;4981138;28;20088;-81
2021/12/30 09:39:25;;;;;;;13.70;6.75;;;12.20;99.90;;;;;;4967347;28;20162;-80
2021/12/30 09:41:50;;;;;;;13.43;7.13;;;12.20;99.90;;;;;;4966920;28;20068;-79
2021/12/30 09:44:18;;;;;;;14.13;6.40;;;12.20;99.90;;;;;;4979006;28;20147;-84
2021/12/30 09:46:44;;;;;;;13.32;6.22;;;12.20;99.90;;;;;;4978144;28;20038;-84
2021/12/30 09:49:17;;;;;;;15.98;5.85;;;12.20;99.90;;;;;;4978216;28;20402;-85
2021/12/30 09:51:42;;;;;;;10.80;5.30;;;12.20;99.90;;;;;;4978601;28;20038;-84
2021/12/30 09:54:08;;;;;;;15.48;6.65;;;12.20;99.90;;;;;;4978684;28;20038;-84
2021/12/30 09:56:34;;;;;;;11.98;5.90;;;12.30;99.90;;;;;;4978298;28;20339;-84
2021/12/30 09:59:00;;;;;;;12.85;5.80;;;12.30;99.90;;;;;;4977926;28;20129;-84
2021/12/30 10:01:25;;;;;;;12.45;6.15;;;12.20;99.90;;;;;;4978118;28;20054;-84
2021/12/30 10:04:01;;;;;;;12.30;5.20;;;12.30;99.90;;;;;;4978892;28;20042;-85
2021/12/30 10:06:29;;;;;;;14.90;6.05;;;12.20;99.90;;;;;;4978816;28;20042;-85
2021/12/30 10:08:57;;;;;;;16.13;5.70;;;12.30;99.90;;;;;;4978202;28;20305;-84
2021/12/30 10:11:26;;;;;;;10.48;4.80;;;12.30;99.90;;;;;;4978228;28;20038;-85
2021/12/30 10:13:59;;;;;;;19.27;5.70;;;12.30;99.90;;;;;;4962654;28;20034;-84
2021/12/30 10:16:26;;;;;;;17.45;5.40;;;12.30;99.90;;;;;;4977875;28;20445;-84
2021/12/30 10:19:02;;;;;;;14.82;5.28;;;12.40;99.90;;;;;;4977884;28;20038;-85
2021/12/30 10:21:30;;;;;;;18.08;5.72;;;12.40;99.90;;;;;;4978437;28;20129;-84
2021/12/30 10:24:03;;;;;;;14.43;4.70;;;12.40;99.90;;;;;;4978524;28;20041;-84
2021/12/30 10:26:29;;;;;;;13.25;4.60;;;12.40;99.90;;;;;;4976886;28;20104;-79
2021/12/30 10:28:58;;;;;;;16.80;4.63;;;12.40;99.90;;;;;;4976896;28;20511;-79
2021/12/30 10:31:27;;;;;;;12.95;4.18;;;12.40;99.90;;;;;;4976876;28;20038;-79
2021/12/30 10:34:04;;;;;;;17.17;4.15;;;12.40;99.90;;;;;;4976997;28;20046;-79
2021/12/30 10:36:34;;;;;;;13.38;4.57;;;12.40;99.90;;;;;;4976805;28;20054;-80
2021/12/30 10:39:20;;;;;;;12.40;4.10;;;12.40;99.90;;;;;;4976679;28;20415;-79
2021/12/30 10:41:48;;;;;;;12.65;4.35;;;12.40;99.90;;;;;;4960529;28;20050;-78
2021/12/30 10:44:14;;;;;;;15.73;5.07;;;12.40;99.90;;;;;;4976847;28;20195;-79
2021/12/30 10:46:40;;;;;;;17.33;4.15;;;12.40;99.90;;;;;;4976546;28;20563;-79
2021/12/30 10:49:10;;;;;;;17.63;4.70;;;12.40;99.90;;;;;;4976950;28;20046;-80
2021/12/30 10:51:47;;;;;;;13.50;3.30;;;12.40;99.90;;;;;;4976863;28;20050;-79
2021/12/30 10:54:25;;;;;;;16.83;5.05;;;12.30;99.90;;;;;;4976692;28;20046;-81
2021/12/30 10:57:05;;;;;;;19.25;4.60;;;12.40;99.90;;;;;;4961994;28;20045;-80
2021/12/30 10:59:42;;;;;;;15.20;4.40;;;12.40;99.90;;;;;;4977456;28;20070;-80
2021/12/30 11:02:12;;;;;;;25.38;4.05;;;12.40;99.90;;;;;;4977683;28;20427;-81
2021/12/30 11:04:46;;;;;;;21.40;5.03;;;12.40;99.90;;;;;;4978405;28;20454;-80
2021/12/30 11:07:14;;;;;;;19.95;5.35;;;12.30;99.90;;;;;;4977727;28;20049;-80
2021/12/30 11:09:49;;;;;;;23.15;5.90;;;12.40;99.90;;;;;;4977718;28;20038;-79
2021/12/30 11:12:15;;;;;;;27.33;5.25;;;12.40;99.90;;;;;;4978221;28;20116;-80
2021/12/30 11:14:41;;;;;;;29.25;5.18;;;12.40;99.90;;;;;;4978105;28;20457;-79
2021/12/30 11:17:18;;;;;;;28.50;5.43;;;12.40;99.90;;;;;;4995296;28;20077;-81
2021/12/30 11:19:49;;;;;;;25.33;4.50;;;12.40;99.90;;;;;;4977234;28;20049;-80
2021/12/30 11:22:19;;;;;;;21.73;4.57;;;12.30;99.90;;;;;;4977805;28;20046;-81
2021/12/30 11:24:46;;;;;;;26.42;4.97;;;12.30;99.90;;;;;;4977214;28;20038;-78
2021/12/30 11:27:13;;;;;;;20.67;4.63;;;12.30;99.90;;;;;;4959877;28;20038;-79
2021/12/30 11:29:43;;;;;;;21.05;4.35;;;12.30;99.90;;;;;;4975882;28;20034;-79
2021/12/30 11:32:09;;;;;;;27.98;5.43;;;12.30;99.90;;;;;;4975714;28;20046;-78
2021/12/30 11:34:36;;;;;;;26.25;4.65;;;12.30;99.90;;;;;;4976043;28;20418;-79
2021/12/30 11:37:03;;;;;;;25.00;5.03;;;12.30;99.90;;;;;;4975164;28;20056;-78
2021/12/30 11:39:29;;;;;;;22.80;4.90;;;12.30;99.90;;;;;;4974966;28;20581;-80
2021/12/30 11:42:05;;;;;;;18.20;3.92;;;12.30;99.90;;;;;;4975636;28;20050;-79
2021/12/30 11:44:50;;;;;;;26.23;4.88;;;12.30;99.90;;;;;;4975546;28;20046;-80
2021/12/30 11:47:31;;;;;;;19.52;4.40;;;12.30;99.90;;;;;;4975313;28;20058;-79
2021/12/30 11:50:11;;;;;;;14.68;4.13;;;12.30;99.90;;;;;;4959401;28;20085;-78
2021/12/30 11:52:57;;;;;;;19.77;4.55;;;12.30;99.90;;;;;;4975552;28;20042;-79
2021/12/30 11:55:41;;;;;;;16.70;4.50;;;12.30;99.90;;;;;;4975493;28;20499;-78
2021/12/30 11:58:29;;;;;;;21.23;4.13;;;12.30;99.90;;;;;;4975329;28;20046;-79
2021/12/30 12:01:00;;;;;;;19.45;4.38;;;12.30;99.90;;;;;;4975266;28;20573;-79
2021/12/30 12:03:34;;;;;;;26.73;5.95;;;12.30;99.90;;;;;;4975228;28;20096;-78
2021/12/30 12:06:02;;;;;;;24.08;4.95;;;12.30;99.90;;;;;;4977116;28;20048;-80
2021/12/30 12:08:30;;;;;;;30.08;5.95;;;12.30;99.90;;;;;;4979372;28;20117;-81
2021/12/30 12:11:15;;;;;;;21.85;4.90;;;12.30;99.90;;;;;;4979066;28;20049;-80
2021/12/30 12:13:42;;;;;;;24.35;4.32;;;12.30;99.90;;;;;;4977174;28;20125;-80
2021/12/30 12:16:08;;;;;;;22.13;4.50;;;12.40;99.90;;;;;;4976186;28;20046;-79
2021/12/30 12:18:34;;;;;;;20.95;5.38;;;12.40;99.90;;;;;;4975733;28;20042;-80
2021/12/30 12:21:03;;;;;;;28.88;4.72;;;12.40;99.90;;;;;;4976230;28;20695;-80
2021/12/30 12:23:33;;;;;;;21.00;4.82;;;12.40;99.90;;;;;;4975594;28;20053;-80
2021/12/30 12:26:18;;;;;;;21.10;4.45;;;12.40;99.90;;;;;;4980926;28;20038;-83
2021/12/30 12:28:45;;;;;;;20.42;4.57;;;12.50;99.90;;;;;;4979196;28;20057;-83
2021/12/30 12:31:11;;;;;;;23.58;5.53;;;12.50;99.90;;;;;;4975469;28;20045;-78
2021/12/30 12:33:39;;;;;;;24.88;5.85;;;12.50;99.90;;;;;;4975316;28;20038;-78
2021/12/30 12:36:17;;;;;;;23.73;5.20;;;12.50;99.90;;;;;;4974968;28;20046;-78
2021/12/30 12:38:50;;;;;;;16.17;3.85;;;12.50;99.90;;;;;;4958957;28;20038;-79
2021/12/30 12:41:23;;;;;;;16.90;3.78;;;12.50;99.90;;;;;;4974876;28;20053;-78
2021/12/30 12:44:10;;;;;;;23.25;4.93;;;12.40;99.90;;;;;;4974802;28;20054;-78